METAR Luftfahrt Wetterdaten     LSZH Zürich Airport
Temperatur
15°C Temperatur
13°C Taupunkt
88% Feuchtigkeit



Wind
10 KM/h
6 MPS
3 M/S
5 KTS



320°
NW
Aktuelle Wetterlage

Teilweise bewölkt Teilweise bewölkt
Luftdruck 1017.95 (hPa) - 30.06 (inHg)
Sichtweite 6 (Meile) - 9.7 (Km)
Flughafen
Flughafen Code LSZH

Position : Zürich Airport
Entfernung: 60 (Km)

Metar:
LSZH 250150Z AUTO 32005KT 9999 FEW044 15/13 Q1018 NOSIG

Zeit: 25-07-2024 03:50 CEST